sensor_id;sensor_type;location;lat;lon;timestamp;temperature;humidity
24164;DHT22;12319;49.204;8.116;2023-02-28T00:01:01;0.80;58.60
24164;DHT22;12319;49.204;8.116;2023-02-28T00:03:27;0.90;58.80
24164;DHT22;12319;49.204;8.116;2023-02-28T00:05:52;0.80;58.80
24164;DHT22;12319;49.204;8.116;2023-02-28T00:08:18;0.70;58.80
24164;DHT22;12319;49.204;8.116;2023-02-28T00:10:43;0.70;58.80
24164;DHT22;12319;49.204;8.116;2023-02-28T00:13:09;0.60;59.00
24164;DHT22;12319;49.204;8.116;2023-02-28T00:15:35;0.60;58.90
24164;DHT22;12319;49.204;8.116;2023-02-28T00:18:00;0.50;59.00
24164;DHT22;12319;49.204;8.116;2023-02-28T00:20:26;0.50;59.00
24164;DHT22;12319;49.204;8.116;2023-02-28T00:22:52;0.50;59.30
24164;DHT22;12319;49.204;8.116;2023-02-28T00:25:21;0.50;59.10
24164;DHT22;12319;49.204;8.116;2023-02-28T00:27:47;0.50;59.60
24164;DHT22;12319;49.204;8.116;2023-02-28T00:30:18;0.50;59.50
24164;DHT22;12319;49.204;8.116;2023-02-28T00:32:45;0.60;59.70
24164;DHT22;12319;49.204;8.116;2023-02-28T00:35:11;0.60;59.70
24164;DHT22;12319;49.204;8.116;2023-02-28T00:37:37;0.80;59.70
24164;DHT22;12319;49.204;8.116;2023-02-28T00:40:03;0.70;59.70
24164;DHT22;12319;49.204;8.116;2023-02-28T00:42:33;0.70;59.70
24164;DHT22;12319;49.204;8.116;2023-02-28T00:44:59;0.70;59.40
24164;DHT22;12319;49.204;8.116;2023-02-28T00:47:25;0.70;59.60
24164;DHT22;12319;49.204;8.116;2023-02-28T00:49:50;0.80;59.60
24164;DHT22;12319;49.204;8.116;2023-02-28T00:52:16;0.70;59.80
24164;DHT22;12319;49.204;8.116;2023-02-28T00:54:41;0.70;59.90
24164;DHT22;12319;49.204;8.116;2023-02-28T00:57:07;0.70;60.00
24164;DHT22;12319;49.204;8.116;2023-02-28T00:59:33;0.70;60.00
24164;DHT22;12319;49.204;8.116;2023-02-28T01:01:58;0.70;60.00
24164;DHT22;12319;49.204;8.116;2023-02-28T01:04:24;0.70;59.80
24164;DHT22;12319;49.204;8.116;2023-02-28T01:06:49;0.60;60.00
24164;DHT22;12319;49.204;8.116;2023-02-28T01:09:15;0.60;60.50
24164;DHT22;12319;49.204;8.116;2023-02-28T01:11:41;0.60;60.70
24164;DHT22;12319;49.204;8.116;2023-02-28T01:14:12;0.60;60.30
24164;DHT22;12319;49.204;8.116;2023-02-28T01:16:38;0.60;60.70
24164;DHT22;12319;49.204;8.116;2023-02-28T01:19:03;0.60;60.70
24164;DHT22;12319;49.204;8.116;2023-02-28T01:21:29;0.60;60.90
24164;DHT22;12319;49.204;8.116;2023-02-28T01:23:56;0.70;60.80
24164;DHT22;12319;49.204;8.116;2023-02-28T01:26:23;0.70;60.80
24164;DHT22;12319;49.204;8.116;2023-02-28T01:28:50;0.70;60.80
24164;DHT22;12319;49.204;8.116;2023-02-28T01:31:16;0.70;61.30
24164;DHT22;12319;49.204;8.116;2023-02-28T01:33:43;0.70;60.90
24164;DHT22;12319;49.204;8.116;2023-02-28T01:36:18;0.70;61.00
24164;DHT22;12319;49.204;8.116;2023-02-28T01:38:44;0.80;61.10
24164;DHT22;12319;49.204;8.116;2023-02-28T01:41:16;0.80;60.90
24164;DHT22;12319;49.204;8.116;2023-02-28T01:46:09;0.80;61.00
24164;DHT22;12319;49.204;8.116;2023-02-28T01:48:39;0.80;60.90
24164;DHT22;12319;49.204;8.116;2023-02-28T01:51:11;0.80;61.10
24164;DHT22;12319;49.204;8.116;2023-02-28T01:53:42;0.80;61.60
24164;DHT22;12319;49.204;8.116;2023-02-28T01:56:11;0.70;61.00
24164;DHT22;12319;49.204;8.116;2023-02-28T01:58:37;0.70;61.60
24164;DHT22;12319;49.204;8.116;2023-02-28T02:01:04;0.60;61.70
24164;DHT22;12319;49.204;8.116;2023-02-28T02:03:30;0.60;61.90
24164;DHT22;12319;49.204;8.116;2023-02-28T02:05:56;0.50;62.10
24164;DHT22;12319;49.204;8.116;2023-02-28T02:08:26;0.50;62.20
24164;DHT22;12319;49.204;8.116;2023-02-28T02:10:59;0.50;62.40
24164;DHT22;12319;49.204;8.116;2023-02-28T02:13:40;0.40;62.20
24164;DHT22;12319;49.204;8.116;2023-02-28T02:25:11;0.20;62.80
24164;DHT22;12319;49.204;8.116;2023-02-28T02:30:33;0.10;62.90
24164;DHT22;12319;49.204;8.116;2023-02-28T02:35:43;0.00;63.00
24164;DHT22;12319;49.204;8.116;2023-02-28T02:38:24;0.00;62.50
24164;DHT22;12319;49.204;8.116;2023-02-28T02:41:13;0.00;63.40
24164;DHT22;12319;49.204;8.116;2023-02-28T02:44:19;-0.10;63.80
24164;DHT22;12319;49.204;8.116;2023-02-28T02:46:48;-0.10;63.70
24164;DHT22;12319;49.204;8.116;2023-02-28T02:49:21;-0.10;64.00
24164;DHT22;12319;49.204;8.116;2023-02-28T02:51:49;-0.10;64.30
24164;DHT22;12319;49.204;8.116;2023-02-28T02:54:21;-0.10;64.50
24164;DHT22;12319;49.204;8.116;2023-02-28T02:56:48;-0.20;64.30
24164;DHT22;12319;49.204;8.116;2023-02-28T02:59:20;-0.20;64.60
24164;DHT22;12319;49.204;8.116;2023-02-28T03:01:53;-0.20;64.60
24164;DHT22;12319;49.204;8.116;2023-02-28T03:04:22;-0.20;64.60
24164;DHT22;12319;49.204;8.116;2023-02-28T03:06:49;-0.30;64.50
24164;DHT22;12319;49.204;8.116;2023-02-28T03:09:15;-0.30;64.60
24164;DHT22;12319;49.204;8.116;2023-02-28T03:11:41;-0.30;65.20
24164;DHT22;12319;49.204;8.116;2023-02-28T03:14:22;-0.30;65.10
24164;DHT22;12319;49.204;8.116;2023-02-28T03:17:16;-0.30;65.10
24164;DHT22;12319;49.204;8.116;2023-02-28T03:20:07;-0.30;65.00
24164;DHT22;12319;49.204;8.116;2023-02-28T03:22:52;-0.40;65.10
24164;DHT22;12319;49.204;8.116;2023-02-28T03:28:16;-0.40;65.20
24164;DHT22;12319;49.204;8.116;2023-02-28T03:33:21;-0.40;65.10
24164;DHT22;12319;49.204;8.116;2023-02-28T03:35:52;-0.40;65.70
24164;DHT22;12319;49.204;8.116;2023-02-28T03:41:00;-0.40;65.20
24164;DHT22;12319;49.204;8.116;2023-02-28T03:43:31;-0.50;65.80
24164;DHT22;12319;49.204;8.116;2023-02-28T03:46:00;-0.50;65.80
24164;DHT22;12319;49.204;8.116;2023-02-28T03:48:45;-0.50;65.80
24164;DHT22;12319;49.204;8.116;2023-02-28T03:51:17;-0.50;66.00
24164;DHT22;12319;49.204;8.116;2023-02-28T03:53:49;-0.50;65.60
24164;DHT22;12319;49.204;8.116;2023-02-28T03:56:28;-0.50;65.80
24164;DHT22;12319;49.204;8.116;2023-02-28T03:59:14;-0.50;65.80
24164;DHT22;12319;49.204;8.116;2023-02-28T04:01:46;-0.50;66.10
24164;DHT22;12319;49.204;8.116;2023-02-28T04:04:13;-0.50;66.50
24164;DHT22;12319;49.204;8.116;2023-02-28T04:06:40;-0.60;66.70
24164;DHT22;12319;49.204;8.116;2023-02-28T04:09:07;-0.60;66.40
24164;DHT22;12319;49.204;8.116;2023-02-28T04:11:39;-0.60;66.60
24164;DHT22;12319;49.204;8.116;2023-02-28T04:14:06;-0.60;66.70
24164;DHT22;12319;49.204;8.116;2023-02-28T04:16:33;-0.60;67.10
24164;DHT22;12319;49.204;8.116;2023-02-28T04:18:59;-0.60;67.00
24164;DHT22;12319;49.204;8.116;2023-02-28T04:21:33;-0.60;66.80
24164;DHT22;12319;49.204;8.116;2023-02-28T04:23:59;-0.60;67.40
24164;DHT22;12319;49.204;8.116;2023-02-28T04:26:31;-0.60;67.30
24164;DHT22;12319;49.204;8.116;2023-02-28T04:28:58;-0.60;67.40
24164;DHT22;12319;49.204;8.116;2023-02-28T04:31:24;-0.60;67.20
24164;DHT22;12319;49.204;8.116;2023-02-28T04:33:49;-0.60;67.20
24164;DHT22;12319;49.204;8.116;2023-02-28T04:36:15;-0.60;67.40
24164;DHT22;12319;49.204;8.116;2023-02-28T04:38:43;-0.60;67.40
24164;DHT22;12319;49.204;8.116;2023-02-28T04:41:08;-0.60;67.60
24164;DHT22;12319;49.204;8.116;2023-02-28T04:43:34;-0.60;67.40
24164;DHT22;12319;49.204;8.116;2023-02-28T04:46:02;-0.60;67.50
24164;DHT22;12319;49.204;8.116;2023-02-28T04:48:30;-0.50;67.90
24164;DHT22;12319;49.204;8.116;2023-02-28T04:51:01;-0.60;67.70
24164;DHT22;12319;49.204;8.116;2023-02-28T04:53:27;-0.50;67.80
24164;DHT22;12319;49.204;8.116;2023-02-28T04:55:54;-0.50;68.10
24164;DHT22;12319;49.204;8.116;2023-02-28T04:58:20;-0.50;68.00
24164;DHT22;12319;49.204;8.116;2023-02-28T05:00:49;-0.50;67.40
24164;DHT22;12319;49.204;8.116;2023-02-28T05:03:14;-0.40;69.00
24164;DHT22;12319;49.204;8.116;2023-02-28T05:05:40;-0.50;68.30
24164;DHT22;12319;49.204;8.116;2023-02-28T05:08:05;-0.40;68.40
24164;DHT22;12319;49.204;8.116;2023-02-28T05:10:31;-0.40;68.40
24164;DHT22;12319;49.204;8.116;2023-02-28T05:12:57;-0.40;68.10
24164;DHT22;12319;49.204;8.116;2023-02-28T05:15:23;-0.30;68.00
24164;DHT22;12319;49.204;8.116;2023-02-28T05:17:48;-0.30;67.80
24164;DHT22;12319;49.204;8.116;2023-02-28T05:20:14;-0.30;68.20
24164;DHT22;12319;49.204;8.116;2023-02-28T05:22:40;-0.20;68.00
24164;DHT22;12319;49.204;8.116;2023-02-28T05:25:08;-0.20;68.00
24164;DHT22;12319;49.204;8.116;2023-02-28T05:27:34;-0.20;68.20
24164;DHT22;12319;49.204;8.116;2023-02-28T05:29:59;-0.20;68.50
24164;DHT22;12319;49.204;8.116;2023-02-28T05:32:28;-0.20;68.40
24164;DHT22;12319;49.204;8.116;2023-02-28T05:34:53;-0.10;68.30
24164;DHT22;12319;49.204;8.116;2023-02-28T05:37:19;-0.10;68.40
24164;DHT22;12319;49.204;8.116;2023-02-28T05:39:44;-0.10;68.00
24164;DHT22;12319;49.204;8.116;2023-02-28T05:42:10;-0.10;68.40
24164;DHT22;12319;49.204;8.116;2023-02-28T05:44:36;-0.10;68.20
24164;DHT22;12319;49.204;8.116;2023-02-28T05:47:01;0.00;68.60
24164;DHT22;12319;49.204;8.116;2023-02-28T05:49:27;0.00;68.20
24164;DHT22;12319;49.204;8.116;2023-02-28T05:51:52;0.10;68.40
24164;DHT22;12319;49.204;8.116;2023-02-28T05:54:18;0.10;68.40
24164;DHT22;12319;49.204;8.116;2023-02-28T05:56:44;0.10;68.20
24164;DHT22;12319;49.204;8.116;2023-02-28T05:59:14;0.10;68.40
24164;DHT22;12319;49.204;8.116;2023-02-28T06:01:41;0.10;68.40
24164;DHT22;12319;49.204;8.116;2023-02-28T06:04:10;0.10;68.30
24164;DHT22;12319;49.204;8.116;2023-02-28T06:06:36;0.10;68.20
24164;DHT22;12319;49.204;8.116;2023-02-28T06:09:03;0.10;68.40
24164;DHT22;12319;49.204;8.116;2023-02-28T06:11:29;0.10;68.30
24164;DHT22;12319;49.204;8.116;2023-02-28T06:13:56;0.10;68.40
24164;DHT22;12319;49.204;8.116;2023-02-28T06:16:22;0.20;68.20
24164;DHT22;12319;49.204;8.116;2023-02-28T06:18:48;0.20;68.60
24164;DHT22;12319;49.204;8.116;2023-02-28T06:21:13;0.20;68.20
24164;DHT22;12319;49.204;8.116;2023-02-28T06:23:39;0.30;68.20
24164;DHT22;12319;49.204;8.116;2023-02-28T06:26:05;0.30;68.20
24164;DHT22;12319;49.204;8.116;2023-02-28T06:28:30;0.30;68.00
24164;DHT22;12319;49.204;8.116;2023-02-28T06:30:56;0.30;68.00
24164;DHT22;12319;49.204;8.116;2023-02-28T06:33:22;0.30;68.50
24164;DHT22;12319;49.204;8.116;2023-02-28T06:35:50;0.30;68.30
24164;DHT22;12319;49.204;8.116;2023-02-28T06:38:16;0.30;68.30
24164;DHT22;12319;49.204;8.116;2023-02-28T06:40:43;0.30;68.50
24164;DHT22;12319;49.204;8.116;2023-02-28T06:43:09;0.30;68.20
24164;DHT22;12319;49.204;8.116;2023-02-28T06:45:37;0.30;68.30
24164;DHT22;12319;49.204;8.116;2023-02-28T06:48:02;0.40;68.30
24164;DHT22;12319;49.204;8.116;2023-02-28T06:50:28;0.40;68.10
24164;DHT22;12319;49.204;8.116;2023-02-28T06:52:54;0.40;68.10
24164;DHT22;12319;49.204;8.116;2023-02-28T06:55:20;0.40;67.80
24164;DHT22;12319;49.204;8.116;2023-02-28T06:57:46;0.40;67.90
24164;DHT22;12319;49.204;8.116;2023-02-28T07:00:12;0.40;68.20
24164;DHT22;12319;49.204;8.116;2023-02-28T07:02:38;0.50;68.30
24164;DHT22;12319;49.204;8.116;2023-02-28T07:05:05;0.50;68.10
24164;DHT22;12319;49.204;8.116;2023-02-28T07:07:30;0.50;68.40
24164;DHT22;12319;49.204;8.116;2023-02-28T07:09:56;0.60;68.00
24164;DHT22;12319;49.204;8.116;2023-02-28T07:12:21;0.60;68.10
24164;DHT22;12319;49.204;8.116;2023-02-28T07:14:47;0.70;68.30
24164;DHT22;12319;49.204;8.116;2023-02-28T07:17:13;0.70;68.20
24164;DHT22;12319;49.204;8.116;2023-02-28T07:19:39;0.80;68.10
24164;DHT22;12319;49.204;8.116;2023-02-28T07:22:04;0.80;67.90
24164;DHT22;12319;49.204;8.116;2023-02-28T07:24:30;0.90;67.90
24164;DHT22;12319;49.204;8.116;2023-02-28T07:26:56;0.90;67.70
24164;DHT22;12319;49.204;8.116;2023-02-28T07:29:22;0.90;67.80
24164;DHT22;12319;49.204;8.116;2023-02-28T07:31:47;1.00;67.80
24164;DHT22;12319;49.204;8.116;2023-02-28T07:34:15;1.00;67.80
24164;DHT22;12319;49.204;8.116;2023-02-28T07:36:41;1.10;67.60
24164;DHT22;12319;49.204;8.116;2023-02-28T07:39:06;1.10;67.70
24164;DHT22;12319;49.204;8.116;2023-02-28T07:41:34;1.10;67.60
24164;DHT22;12319;49.204;8.116;2023-02-28T07:44:02;1.20;67.40
24164;DHT22;12319;49.204;8.116;2023-02-28T07:46:28;1.20;67.40
24164;DHT22;12319;49.204;8.116;2023-02-28T07:49:00;1.30;67.60
24164;DHT22;12319;49.204;8.116;2023-02-28T07:51:26;1.40;67.50
24164;DHT22;12319;49.204;8.116;2023-02-28T07:53:51;1.50;67.40
24164;DHT22;12319;49.204;8.116;2023-02-28T07:56:17;1.60;67.00
24164;DHT22;12319;49.204;8.116;2023-02-28T07:58:42;1.70;67.00
24164;DHT22;12319;49.204;8.116;2023-02-28T08:01:09;1.80;66.60
24164;DHT22;12319;49.204;8.116;2023-02-28T08:03:36;1.90;66.70
24164;DHT22;12319;49.204;8.116;2023-02-28T08:06:04;2.00;66.40
24164;DHT22;12319;49.204;8.116;2023-02-28T08:08:29;2.20;66.40
24164;DHT22;12319;49.204;8.116;2023-02-28T08:11:01;2.40;66.30
24164;DHT22;12319;49.204;8.116;2023-02-28T08:13:29;2.50;65.70
24164;DHT22;12319;49.204;8.116;2023-02-28T08:15:55;2.60;65.40
24164;DHT22;12319;49.204;8.116;2023-02-28T08:18:22;2.60;65.10
24164;DHT22;12319;49.204;8.116;2023-02-28T08:20:48;2.60;65.00
24164;DHT22;12319;49.204;8.116;2023-02-28T08:23:14;2.60;65.00
24164;DHT22;12319;49.204;8.116;2023-02-28T08:25:40;2.60;65.10
24164;DHT22;12319;49.204;8.116;2023-02-28T08:28:05;2.70;65.00
24164;DHT22;12319;49.204;8.116;2023-02-28T08:30:31;2.80;64.90
24164;DHT22;12319;49.204;8.116;2023-02-28T08:32:56;2.80;64.90
24164;DHT22;12319;49.204;8.116;2023-02-28T08:35:22;2.90;65.00
24164;DHT22;12319;49.204;8.116;2023-02-28T08:37:48;2.90;65.50
24164;DHT22;12319;49.204;8.116;2023-02-28T08:40:15;3.00;64.60
24164;DHT22;12319;49.204;8.116;2023-02-28T08:42:47;3.00;64.50
24164;DHT22;12319;49.204;8.116;2023-02-28T08:45:14;3.00;65.20
24164;DHT22;12319;49.204;8.116;2023-02-28T08:47:40;3.00;64.30
24164;DHT22;12319;49.204;8.116;2023-02-28T08:50:07;3.00;64.20
24164;DHT22;12319;49.204;8.116;2023-02-28T08:52:33;3.00;64.30
24164;DHT22;12319;49.204;8.116;2023-02-28T08:54:58;3.00;64.20
24164;DHT22;12319;49.204;8.116;2023-02-28T08:57:24;2.90;64.20
24164;DHT22;12319;49.204;8.116;2023-02-28T08:59:51;3.00;64.60
24164;DHT22;12319;49.204;8.116;2023-02-28T09:02:17;3.00;64.50
24164;DHT22;12319;49.204;8.116;2023-02-28T09:04:43;3.10;64.30
24164;DHT22;12319;49.204;8.116;2023-02-28T09:07:11;3.10;64.30
24164;DHT22;12319;49.204;8.116;2023-02-28T09:09:37;3.20;64.20
24164;DHT22;12319;49.204;8.116;2023-02-28T09:12:03;3.20;64.10
24164;DHT22;12319;49.204;8.116;2023-02-28T09:14:28;3.20;64.20
24164;DHT22;12319;49.204;8.116;2023-02-28T09:16:54;3.30;64.20
24164;DHT22;12319;49.204;8.116;2023-02-28T09:19:20;3.30;63.80
24164;DHT22;12319;49.204;8.116;2023-02-28T09:21:46;3.40;63.90
24164;DHT22;12319;49.204;8.116;2023-02-28T09:24:11;3.50;63.90
24164;DHT22;12319;49.204;8.116;2023-02-28T09:26:39;3.60;63.70
24164;DHT22;12319;49.204;8.116;2023-02-28T09:29:05;3.70;63.90
24164;DHT22;12319;49.204;8.116;2023-02-28T09:31:32;3.90;63.60
24164;DHT22;12319;49.204;8.116;2023-02-28T09:33:58;4.20;63.80
24164;DHT22;12319;49.204;8.116;2023-02-28T09:36:25;4.40;63.30
24164;DHT22;12319;49.204;8.116;2023-02-28T09:38:52;4.60;63.00
24164;DHT22;12319;49.204;8.116;2023-02-28T09:41:25;4.70;62.70
24164;DHT22;12319;49.204;8.116;2023-02-28T09:43:56;4.80;62.10
24164;DHT22;12319;49.204;8.116;2023-02-28T09:46:35;5.00;60.90
24164;DHT22;12319;49.204;8.116;2023-02-28T09:49:18;5.00;60.40
24164;DHT22;12319;49.204;8.116;2023-02-28T09:54:28;5.50;60.40
24164;DHT22;12319;49.204;8.116;2023-02-28T09:57:45;6.30;59.80
24164;DHT22;12319;49.204;8.116;2023-02-28T10:00:00;6.90;57.70
24164;DHT22;12319;49.204;8.116;2023-02-28T10:05:15;7.20;56.10
24164;DHT22;12319;49.204;8.116;2023-02-28T10:08:10;7.10;55.90
24164;DHT22;12319;49.204;8.116;2023-02-28T10:10:45;6.80;56.60
24164;DHT22;12319;49.204;8.116;2023-02-28T10:13:52;6.50;56.30
24164;DHT22;12319;49.204;8.116;2023-02-28T10:16:36;6.20;55.80
24164;DHT22;12319;49.204;8.116;2023-02-28T10:21:55;5.90;57.30
24164;DHT22;12319;49.204;8.116;2023-02-28T10:24:35;5.80;56.00
24164;DHT22;12319;49.204;8.116;2023-02-28T10:27:14;5.80;56.00
24164;DHT22;12319;49.204;8.116;2023-02-28T10:29:43;5.90;56.10
24164;DHT22;12319;49.204;8.116;2023-02-28T10:32:12;6.20;56.40
24164;DHT22;12319;49.204;8.116;2023-02-28T10:34:38;6.30;56.10
24164;DHT22;12319;49.204;8.116;2023-02-28T10:37:04;6.40;56.50
24164;DHT22;12319;49.204;8.116;2023-02-28T10:39:42;6.50;55.60
24164;DHT22;12319;49.204;8.116;2023-02-28T10:42:28;6.70;56.20
24164;DHT22;12319;49.204;8.116;2023-02-28T10:45:24;6.70;54.70
24164;DHT22;12319;49.204;8.116;2023-02-28T10:48:23;6.70;54.60
24164;DHT22;12319;49.204;8.116;2023-02-28T10:50:52;6.80;54.50
24164;DHT22;12319;49.204;8.116;2023-02-28T10:59:03;7.40;54.10
24164;DHT22;12319;49.204;8.116;2023-02-28T11:01:47;7.60;53.20
24164;DHT22;12319;49.204;8.116;2023-02-28T11:09:28;8.10;52.90
24164;DHT22;12319;49.204;8.116;2023-02-28T11:11:55;8.10;50.90
24164;DHT22;12319;49.204;8.116;2023-02-28T11:14:27;7.90;49.10
24164;DHT22;12319;49.204;8.116;2023-02-28T11:16:54;7.80;50.10
24164;DHT22;12319;49.204;8.116;2023-02-28T11:19:23;7.70;49.70
24164;DHT22;12319;49.204;8.116;2023-02-28T11:21:56;7.70;51.40
24164;DHT22;12319;49.204;8.116;2023-02-28T11:24:31;7.70;50.30
24164;DHT22;12319;49.204;8.116;2023-02-28T11:26:59;7.60;50.10
24164;DHT22;12319;49.204;8.116;2023-02-28T11:29:31;7.50;49.70
24164;DHT22;12319;49.204;8.116;2023-02-28T11:32:18;7.30;49.30
24164;DHT22;12319;49.204;8.116;2023-02-28T11:34:45;7.20;49.80
24164;DHT22;12319;49.204;8.116;2023-02-28T11:37:14;7.10;51.20
24164;DHT22;12319;49.204;8.116;2023-02-28T11:39:41;6.90;51.30
24164;DHT22;12319;49.204;8.116;2023-02-28T11:53:18;6.90;50.80
24164;DHT22;12319;49.204;8.116;2023-02-28T11:55:51;7.00;51.30
24164;DHT22;12319;49.204;8.116;2023-02-28T11:58:32;7.10;51.00
24164;DHT22;12319;49.204;8.116;2023-02-28T12:04:10;7.20;52.90
24164;DHT22;12319;49.204;8.116;2023-02-28T12:09:50;7.40;50.30
24164;DHT22;12319;49.204;8.116;2023-02-28T12:12:24;7.50;49.60
24164;DHT22;12319;49.204;8.116;2023-02-28T12:18:16;7.70;49.90
24164;DHT22;12319;49.204;8.116;2023-02-28T12:21:01;7.80;49.30
24164;DHT22;12319;49.204;8.116;2023-02-28T12:26:39;8.10;50.00
24164;DHT22;12319;49.204;8.116;2023-02-28T12:29:15;8.30;50.20
24164;DHT22;12319;49.204;8.116;2023-02-28T12:31:49;8.30;48.60
24164;DHT22;12319;49.204;8.116;2023-02-28T12:34:19;8.30;48.60
24164;DHT22;12319;49.204;8.116;2023-02-28T12:36:47;8.20;48.40
24164;DHT22;12319;49.204;8.116;2023-02-28T12:39:20;8.20;50.20
24164;DHT22;12319;49.204;8.116;2023-02-28T12:41:56;8.00;49.00
24164;DHT22;12319;49.204;8.116;2023-02-28T12:44:35;7.90;50.60
24164;DHT22;12319;49.204;8.116;2023-02-28T12:47:05;7.80;50.50
24164;DHT22;12319;49.204;8.116;2023-02-28T12:49:41;7.80;48.90
24164;DHT22;12319;49.204;8.116;2023-02-28T12:52:11;7.80;48.20
24164;DHT22;12319;49.204;8.116;2023-02-28T12:55:08;7.80;48.90
24164;DHT22;12319;49.204;8.116;2023-02-28T12:57:50;7.80;48.90
24164;DHT22;12319;49.204;8.116;2023-02-28T13:00:23;7.60;49.70
24164;DHT22;12319;49.204;8.116;2023-02-28T13:08:50;7.50;49.80
24164;DHT22;12319;49.204;8.116;2023-02-28T13:11:29;7.50;48.70
24164;DHT22;12319;49.204;8.116;2023-02-28T13:14:20;7.50;49.70
24164;DHT22;12319;49.204;8.116;2023-02-28T13:19:22;7.50;50.30
24164;DHT22;12319;49.204;8.116;2023-02-28T13:21:50;7.40;49.80
24164;DHT22;12319;49.204;8.116;2023-02-28T13:29:32;7.20;50.00
24164;DHT22;12319;49.204;8.116;2023-02-28T13:34:40;7.80;50.80
24164;DHT22;12319;49.204;8.116;2023-02-28T13:40:07;8.10;48.50
24164;DHT22;12319;49.204;8.116;2023-02-28T13:42:49;8.10;48.30
24164;DHT22;12319;49.204;8.116;2023-02-28T13:45:29;8.10;49.00
24164;DHT22;12319;49.204;8.116;2023-02-28T13:48:00;7.80;48.20
24164;DHT22;12319;49.204;8.116;2023-02-28T13:50:31;7.70;49.00
24164;DHT22;12319;49.204;8.116;2023-02-28T13:53:21;7.50;48.00
24164;DHT22;12319;49.204;8.116;2023-02-28T13:58:59;7.50;48.90
24164;DHT22;12319;49.204;8.116;2023-02-28T14:04:10;7.50;49.00
24164;DHT22;12319;49.204;8.116;2023-02-28T14:06:47;7.50;49.80
24164;DHT22;12319;49.204;8.116;2023-02-28T14:09:29;7.50;50.00
24164;DHT22;12319;49.204;8.116;2023-02-28T14:11:56;7.50;49.30
24164;DHT22;12319;49.204;8.116;2023-02-28T14:17:08;7.40;49.50
24164;DHT22;12319;49.204;8.116;2023-02-28T14:19:38;7.40;49.90
24164;DHT22;12319;49.204;8.116;2023-02-28T14:30:56;7.30;50.30
24164;DHT22;12319;49.204;8.116;2023-02-28T14:33:30;7.30;50.20
24164;DHT22;12319;49.204;8.116;2023-02-28T14:43:57;7.40;50.10
24164;DHT22;12319;49.204;8.116;2023-02-28T14:46:27;7.30;49.80
24164;DHT22;12319;49.204;8.116;2023-02-28T14:48:54;7.30;50.40
24164;DHT22;12319;49.204;8.116;2023-02-28T14:51:23;7.30;50.20
24164;DHT22;12319;49.204;8.116;2023-02-28T14:53:57;7.30;50.40
24164;DHT22;12319;49.204;8.116;2023-02-28T14:56:33;7.30;50.20
24164;DHT22;12319;49.204;8.116;2023-02-28T14:58:59;7.30;50.40
24164;DHT22;12319;49.204;8.116;2023-02-28T15:01:25;7.20;50.10
24164;DHT22;12319;49.204;8.116;2023-02-28T15:04:05;7.20;50.70
24164;DHT22;12319;49.204;8.116;2023-02-28T15:06:32;7.20;50.10
24164;DHT22;12319;49.204;8.116;2023-02-28T15:09:11;7.10;50.40
24164;DHT22;12319;49.204;8.116;2023-02-28T15:11:39;7.10;50.30
24164;DHT22;12319;49.204;8.116;2023-02-28T15:14:05;7.10;50.10
24164;DHT22;12319;49.204;8.116;2023-02-28T15:16:41;7.00;50.00
24164;DHT22;12319;49.204;8.116;2023-02-28T15:19:20;6.90;50.30
24164;DHT22;12319;49.204;8.116;2023-02-28T15:21:50;6.90;50.30
24164;DHT22;12319;49.204;8.116;2023-02-28T15:24:31;6.80;49.90
24164;DHT22;12319;49.204;8.116;2023-02-28T15:27:00;6.80;50.30
24164;DHT22;12319;49.204;8.116;2023-02-28T15:29:41;6.70;50.20
24164;DHT22;12319;49.204;8.116;2023-02-28T15:32:23;6.70;51.20
24164;DHT22;12319;49.204;8.116;2023-02-28T15:34:49;6.70;50.40
24164;DHT22;12319;49.204;8.116;2023-02-28T15:37:38;6.70;50.60
24164;DHT22;12319;49.204;8.116;2023-02-28T15:40:28;6.60;51.30
24164;DHT22;12319;49.204;8.116;2023-02-28T15:43:04;6.50;50.90
24164;DHT22;12319;49.204;8.116;2023-02-28T15:46:10;6.50;50.80
24164;DHT22;12319;49.204;8.116;2023-02-28T15:48:58;6.50;51.00
24164;DHT22;12319;49.204;8.116;2023-02-28T15:51:36;6.50;51.20
24164;DHT22;12319;49.204;8.116;2023-02-28T15:54:07;6.40;51.30
24164;DHT22;12319;49.204;8.116;2023-02-28T15:56:44;6.40;51.20
24164;DHT22;12319;49.204;8.116;2023-02-28T15:59:28;6.40;51.70
24164;DHT22;12319;49.204;8.116;2023-02-28T16:02:13;6.30;51.70
24164;DHT22;12319;49.204;8.116;2023-02-28T16:07:27;6.30;51.50
24164;DHT22;12319;49.204;8.116;2023-02-28T16:09:53;6.30;51.30
24164;DHT22;12319;49.204;8.116;2023-02-28T16:12:20;6.20;51.50
24164;DHT22;12319;49.204;8.116;2023-02-28T16:14:47;6.20;51.60
24164;DHT22;12319;49.204;8.116;2023-02-28T16:17:24;6.10;51.70
24164;DHT22;12319;49.204;8.116;2023-02-28T16:19:51;6.10;52.00
24164;DHT22;12319;49.204;8.116;2023-02-28T16:22:16;6.00;51.90
24164;DHT22;12319;49.204;8.116;2023-02-28T16:24:42;6.00;51.90
24164;DHT22;12319;49.204;8.116;2023-02-28T16:27:20;5.90;52.20
24164;DHT22;12319;49.204;8.116;2023-02-28T16:29:47;5.80;52.80
24164;DHT22;12319;49.204;8.116;2023-02-28T16:32:14;5.80;52.30
24164;DHT22;12319;49.204;8.116;2023-02-28T16:34:41;5.70;52.40
24164;DHT22;12319;49.204;8.116;2023-02-28T16:37:15;5.70;52.80
24164;DHT22;12319;49.204;8.116;2023-02-28T16:39:42;5.70;52.80
24164;DHT22;12319;49.204;8.116;2023-02-28T16:42:20;5.70;53.00
24164;DHT22;12319;49.204;8.116;2023-02-28T16:44:47;5.60;53.10
24164;DHT22;12319;49.204;8.116;2023-02-28T16:47:13;5.60;53.40
24164;DHT22;12319;49.204;8.116;2023-02-28T16:49:38;5.50;53.40
24164;DHT22;12319;49.204;8.116;2023-02-28T16:52:07;5.50;53.50
24164;DHT22;12319;49.204;8.116;2023-02-28T16:54:33;5.40;53.60
24164;DHT22;12319;49.204;8.116;2023-02-28T16:56:59;5.40;53.80
24164;DHT22;12319;49.204;8.116;2023-02-28T16:59:26;5.30;53.80
24164;DHT22;12319;49.204;8.116;2023-02-28T17:01:52;5.30;54.00
24164;DHT22;12319;49.204;8.116;2023-02-28T17:04:18;5.30;54.10
24164;DHT22;12319;49.204;8.116;2023-02-28T17:06:44;5.20;54.20
24164;DHT22;12319;49.204;8.116;2023-02-28T17:09:21;5.10;54.40
24164;DHT22;12319;49.204;8.116;2023-02-28T17:11:47;5.10;55.00
24164;DHT22;12319;49.204;8.116;2023-02-28T17:14:12;5.00;54.60
24164;DHT22;12319;49.204;8.116;2023-02-28T17:16:39;5.00;54.80
24164;DHT22;12319;49.204;8.116;2023-02-28T17:19:08;4.90;54.80
24164;DHT22;12319;49.204;8.116;2023-02-28T17:21:36;4.80;54.70
24164;DHT22;12319;49.204;8.116;2023-02-28T17:24:02;4.80;54.80
24164;DHT22;12319;49.204;8.116;2023-02-28T17:26:27;4.70;55.00
24164;DHT22;12319;49.204;8.116;2023-02-28T17:28:54;4.60;55.00
24164;DHT22;12319;49.204;8.116;2023-02-28T17:31:22;4.60;55.00
24164;DHT22;12319;49.204;8.116;2023-02-28T17:33:47;4.50;54.90
24164;DHT22;12319;49.204;8.116;2023-02-28T17:36:20;4.50;54.90
24164;DHT22;12319;49.204;8.116;2023-02-28T17:38:48;4.40;55.40
24164;DHT22;12319;49.204;8.116;2023-02-28T17:41:13;4.40;55.50
24164;DHT22;12319;49.204;8.116;2023-02-28T17:43:39;4.20;55.10
24164;DHT22;12319;49.204;8.116;2023-02-28T17:46:06;4.30;55.70
24164;DHT22;12319;49.204;8.116;2023-02-28T17:48:34;4.20;55.60
24164;DHT22;12319;49.204;8.116;2023-02-28T17:51:01;4.10;55.60
24164;DHT22;12319;49.204;8.116;2023-02-28T17:53:26;4.10;55.70
24164;DHT22;12319;49.204;8.116;2023-02-28T17:55:52;4.00;56.00